sensor_id;sensor_type;location;lat;lon;timestamp;P1;durP1;ratioP1;P2;durP2;ratioP2
25905;SDS011;13713;52.552;13.204;2022-10-13T00:00:43;56.03;;;33.90;;
25905;SDS011;13713;52.552;13.204;2022-10-13T00:03:11;55.85;;;32.70;;
25905;SDS011;13713;52.552;13.204;2022-10-13T00:05:47;54.75;;;32.90;;
25905;SDS011;13713;52.552;13.204;2022-10-13T00:08:14;53.83;;;31.85;;
25905;SDS011;13713;52.552;13.204;2022-10-13T00:10:45;57.17;;;33.97;;
25905;SDS011;13713;52.552;13.204;2022-10-13T00:13:13;55.33;;;32.65;;
25905;SDS011;13713;52.552;13.204;2022-10-13T00:15:40;52.72;;;32.22;;
25905;SDS011;13713;52.552;13.204;2022-10-13T00:18:07;51.72;;;32.50;;
25905;SDS011;13713;52.552;13.204;2022-10-13T00:20:33;50.42;;;32.78;;
25905;SDS011;13713;52.552;13.204;2022-10-13T00:22:59;51.17;;;32.38;;
25905;SDS011;13713;52.552;13.204;2022-10-13T00:25:25;51.13;;;32.17;;
25905;SDS011;13713;52.552;13.204;2022-10-13T00:27:51;51.00;;;30.85;;
25905;SDS011;13713;52.552;13.204;2022-10-13T00:30:18;50.70;;;31.35;;
25905;SDS011;13713;52.552;13.204;2022-10-13T00:32:44;51.67;;;31.58;;
25905;SDS011;13713;52.552;13.204;2022-10-13T00:35:10;49.88;;;29.80;;
25905;SDS011;13713;52.552;13.204;2022-10-13T00:37:35;49.00;;;29.35;;
25905;SDS011;13713;52.552;13.204;2022-10-13T00:40:01;49.67;;;30.25;;
25905;SDS011;13713;52.552;13.204;2022-10-13T00:42:27;50.40;;;29.75;;
25905;SDS011;13713;52.552;13.204;2022-10-13T00:44:56;48.72;;;31.42;;
25905;SDS011;13713;52.552;13.204;2022-10-13T00:47:42;48.97;;;29.90;;
25905;SDS011;13713;52.552;13.204;2022-10-13T00:50:11;52.00;;;30.30;;
25905;SDS011;13713;52.552;13.204;2022-10-13T00:52:40;48.50;;;29.67;;
25905;SDS011;13713;52.552;13.204;2022-10-13T00:55:08;49.60;;;29.40;;
25905;SDS011;13713;52.552;13.204;2022-10-13T00:57:38;47.00;;;29.63;;
25905;SDS011;13713;52.552;13.204;2022-10-13T01:00:06;49.97;;;30.17;;
25905;SDS011;13713;52.552;13.204;2022-10-13T01:02:34;47.15;;;29.30;;
25905;SDS011;13713;52.552;13.204;2022-10-13T01:05:04;44.45;;;28.42;;
25905;SDS011;13713;52.552;13.204;2022-10-13T01:07:31;46.13;;;28.75;;
25905;SDS011;13713;52.552;13.204;2022-10-13T01:09:58;42.42;;;27.88;;
25905;SDS011;13713;52.552;13.204;2022-10-13T01:12:37;45.97;;;28.58;;
25905;SDS011;13713;52.552;13.204;2022-10-13T01:15:19;45.85;;;28.45;;
25905;SDS011;13713;52.552;13.204;2022-10-13T01:18:07;45.63;;;28.85;;
25905;SDS011;13713;52.552;13.204;2022-10-13T01:31:51;43.85;;;27.45;;
25905;SDS011;13713;52.552;13.204;2022-10-13T01:34:33;42.75;;;26.98;;
25905;SDS011;13713;52.552;13.204;2022-10-13T01:39:52;43.83;;;26.95;;
25905;SDS011;13713;52.552;13.204;2022-10-13T01:42:27;41.08;;;25.63;;
25905;SDS011;13713;52.552;13.204;2022-10-13T01:45:03;41.83;;;26.15;;
25905;SDS011;13713;52.552;13.204;2022-10-13T01:47:29;42.97;;;26.98;;
25905;SDS011;13713;52.552;13.204;2022-10-13T01:49:56;45.80;;;27.95;;
25905;SDS011;13713;52.552;13.204;2022-10-13T01:52:24;41.22;;;26.27;;
25905;SDS011;13713;52.552;13.204;2022-10-13T01:57:33;43.92;;;25.13;;
25905;SDS011;13713;52.552;13.204;2022-10-13T02:00:03;41.42;;;25.55;;
25905;SDS011;13713;52.552;13.204;2022-10-13T02:08:05;41.13;;;26.05;;
25905;SDS011;13713;52.552;13.204;2022-10-13T02:10:45;35.97;;;24.67;;
25905;SDS011;13713;52.552;13.204;2022-10-13T02:13:16;40.67;;;26.33;;
25905;SDS011;13713;52.552;13.204;2022-10-13T02:15:47;40.92;;;24.83;;
25905;SDS011;13713;52.552;13.204;2022-10-13T02:18:16;37.65;;;23.90;;
25905;SDS011;13713;52.552;13.204;2022-10-13T02:20:45;38.93;;;24.80;;
25905;SDS011;13713;52.552;13.204;2022-10-13T02:23:12;37.20;;;23.85;;
25905;SDS011;13713;52.552;13.204;2022-10-13T02:25:40;39.83;;;24.67;;
25905;SDS011;13713;52.552;13.204;2022-10-13T02:28:07;38.72;;;24.90;;
25905;SDS011;13713;52.552;13.204;2022-10-13T02:30:40;39.22;;;24.75;;
25905;SDS011;13713;52.552;13.204;2022-10-13T02:33:06;39.17;;;24.60;;
25905;SDS011;13713;52.552;13.204;2022-10-13T02:35:33;42.58;;;24.42;;
25905;SDS011;13713;52.552;13.204;2022-10-13T02:38:00;39.05;;;24.33;;
25905;SDS011;13713;52.552;13.204;2022-10-13T02:40:26;37.08;;;24.23;;
25905;SDS011;13713;52.552;13.204;2022-10-13T02:42:52;38.13;;;23.50;;
25905;SDS011;13713;52.552;13.204;2022-10-13T02:45:18;36.35;;;23.20;;
25905;SDS011;13713;52.552;13.204;2022-10-13T02:47:44;38.33;;;23.73;;
25905;SDS011;13713;52.552;13.204;2022-10-13T02:50:10;36.20;;;22.33;;
25905;SDS011;13713;52.552;13.204;2022-10-13T02:52:36;36.78;;;24.30;;
25905;SDS011;13713;52.552;13.204;2022-10-13T02:55:02;33.00;;;22.35;;
25905;SDS011;13713;52.552;13.204;2022-10-13T02:57:29;35.47;;;21.90;;
25905;SDS011;13713;52.552;13.204;2022-10-13T02:59:55;34.28;;;21.48;;
25905;SDS011;13713;52.552;13.204;2022-10-13T03:02:23;34.10;;;21.23;;
25905;SDS011;13713;52.552;13.204;2022-10-13T03:04:50;34.30;;;21.17;;
25905;SDS011;13713;52.552;13.204;2022-10-13T03:07:16;34.00;;;21.70;;
25905;SDS011;13713;52.552;13.204;2022-10-13T03:09:41;34.97;;;22.75;;
25905;SDS011;13713;52.552;13.204;2022-10-13T03:12:07;34.08;;;21.33;;
25905;SDS011;13713;52.552;13.204;2022-10-13T03:14:33;33.45;;;21.45;;
25905;SDS011;13713;52.552;13.204;2022-10-13T03:16:59;32.33;;;21.85;;
25905;SDS011;13713;52.552;13.204;2022-10-13T03:19:25;32.42;;;21.05;;
25905;SDS011;13713;52.552;13.204;2022-10-13T03:21:51;31.60;;;20.23;;
25905;SDS011;13713;52.552;13.204;2022-10-13T03:24:16;34.42;;;20.73;;
25905;SDS011;13713;52.552;13.204;2022-10-13T03:26:42;32.42;;;21.00;;
25905;SDS011;13713;52.552;13.204;2022-10-13T03:29:12;31.08;;;20.25;;
25905;SDS011;13713;52.552;13.204;2022-10-13T03:31:39;30.50;;;20.25;;
25905;SDS011;13713;52.552;13.204;2022-10-13T03:34:05;32.75;;;19.45;;
25905;SDS011;13713;52.552;13.204;2022-10-13T03:36:31;33.47;;;20.73;;
25905;SDS011;13713;52.552;13.204;2022-10-13T03:38:57;29.33;;;19.48;;
25905;SDS011;13713;52.552;13.204;2022-10-13T03:41:22;31.30;;;19.60;;
25905;SDS011;13713;52.552;13.204;2022-10-13T03:43:49;31.25;;;19.77;;
25905;SDS011;13713;52.552;13.204;2022-10-13T03:46:15;33.88;;;19.50;;
25905;SDS011;13713;52.552;13.204;2022-10-13T03:48:43;32.20;;;19.67;;
25905;SDS011;13713;52.552;13.204;2022-10-13T03:51:12;29.50;;;19.52;;
25905;SDS011;13713;52.552;13.204;2022-10-13T03:53:43;31.58;;;19.35;;
25905;SDS011;13713;52.552;13.204;2022-10-13T03:56:11;29.67;;;19.83;;
25905;SDS011;13713;52.552;13.204;2022-10-13T03:58:46;30.95;;;18.73;;
25905;SDS011;13713;52.552;13.204;2022-10-13T04:01:17;29.08;;;19.77;;
25905;SDS011;13713;52.552;13.204;2022-10-13T04:03:44;32.10;;;18.83;;
25905;SDS011;13713;52.552;13.204;2022-10-13T04:06:10;30.70;;;18.20;;
25905;SDS011;13713;52.552;13.204;2022-10-13T04:08:36;29.15;;;19.52;;
25905;SDS011;13713;52.552;13.204;2022-10-13T04:11:03;29.08;;;18.52;;
25905;SDS011;13713;52.552;13.204;2022-10-13T04:13:30;28.10;;;18.48;;
25905;SDS011;13713;52.552;13.204;2022-10-13T04:16:06;29.08;;;18.27;;
25905;SDS011;13713;52.552;13.204;2022-10-13T04:18:35;30.48;;;18.90;;
25905;SDS011;13713;52.552;13.204;2022-10-13T04:21:00;28.55;;;18.15;;
25905;SDS011;13713;52.552;13.204;2022-10-13T04:23:26;31.17;;;19.35;;
25905;SDS011;13713;52.552;13.204;2022-10-13T04:25:52;30.83;;;19.23;;
25905;SDS011;13713;52.552;13.204;2022-10-13T04:28:17;31.17;;;19.13;;
25905;SDS011;13713;52.552;13.204;2022-10-13T04:30:43;28.98;;;18.35;;
25905;SDS011;13713;52.552;13.204;2022-10-13T04:33:09;29.08;;;19.45;;
25905;SDS011;13713;52.552;13.204;2022-10-13T04:35:38;28.10;;;17.70;;
25905;SDS011;13713;52.552;13.204;2022-10-13T04:38:05;28.48;;;18.48;;
25905;SDS011;13713;52.552;13.204;2022-10-13T04:40:30;31.27;;;19.17;;
25905;SDS011;13713;52.552;13.204;2022-10-13T04:42:56;28.33;;;18.67;;
25905;SDS011;13713;52.552;13.204;2022-10-13T04:45:22;28.20;;;17.95;;
25905;SDS011;13713;52.552;13.204;2022-10-13T04:47:47;27.92;;;17.65;;
25905;SDS011;13713;52.552;13.204;2022-10-13T04:50:16;30.73;;;20.25;;
25905;SDS011;13713;52.552;13.204;2022-10-13T04:52:45;32.13;;;20.77;;
25905;SDS011;13713;52.552;13.204;2022-10-13T04:55:11;33.85;;;20.90;;
25905;SDS011;13713;52.552;13.204;2022-10-13T04:57:37;40.20;;;26.52;;
25905;SDS011;13713;52.552;13.204;2022-10-13T05:00:03;46.08;;;30.20;;
25905;SDS011;13713;52.552;13.204;2022-10-13T05:02:35;45.08;;;28.65;;
25905;SDS011;13713;52.552;13.204;2022-10-13T05:05:01;41.28;;;28.10;;
25905;SDS011;13713;52.552;13.204;2022-10-13T05:07:28;41.97;;;27.20;;
25905;SDS011;13713;52.552;13.204;2022-10-13T05:09:55;43.22;;;27.45;;
25905;SDS011;13713;52.552;13.204;2022-10-13T05:12:20;40.30;;;26.02;;
25905;SDS011;13713;52.552;13.204;2022-10-13T05:14:46;38.67;;;26.33;;
25905;SDS011;13713;52.552;13.204;2022-10-13T05:17:12;40.13;;;26.02;;
25905;SDS011;13713;52.552;13.204;2022-10-13T05:19:38;41.97;;;26.95;;
25905;SDS011;13713;52.552;13.204;2022-10-13T05:22:03;35.95;;;25.25;;
25905;SDS011;13713;52.552;13.204;2022-10-13T05:24:29;38.33;;;25.13;;
25905;SDS011;13713;52.552;13.204;2022-10-13T05:27:02;43.35;;;26.95;;
25905;SDS011;13713;52.552;13.204;2022-10-13T05:29:32;63.60;;;34.47;;
25905;SDS011;13713;52.552;13.204;2022-10-13T05:31:58;59.33;;;35.05;;
25905;SDS011;13713;52.552;13.204;2022-10-13T05:34:24;79.05;;;41.72;;
25905;SDS011;13713;52.552;13.204;2022-10-13T05:36:49;80.28;;;42.80;;
25905;SDS011;13713;52.552;13.204;2022-10-13T05:39:15;86.50;;;42.63;;
25905;SDS011;13713;52.552;13.204;2022-10-13T05:41:41;72.70;;;39.75;;
25905;SDS011;13713;52.552;13.204;2022-10-13T05:44:11;83.33;;;41.70;;
25905;SDS011;13713;52.552;13.204;2022-10-13T05:46:48;84.95;;;43.55;;
25905;SDS011;13713;52.552;13.204;2022-10-13T05:49:13;103.45;;;47.67;;
25905;SDS011;13713;52.552;13.204;2022-10-13T05:51:44;87.80;;;43.75;;
25905;SDS011;13713;52.552;13.204;2022-10-13T05:54:18;102.05;;;46.40;;
25905;SDS011;13713;52.552;13.204;2022-10-13T05:57:10;97.85;;;41.70;;
25905;SDS011;13713;52.552;13.204;2022-10-13T05:59:44;100.20;;;42.38;;
25905;SDS011;13713;52.552;13.204;2022-10-13T06:02:14;88.65;;;39.97;;
25905;SDS011;13713;52.552;13.204;2022-10-13T06:04:45;83.53;;;41.33;;
25905;SDS011;13713;52.552;13.204;2022-10-13T06:07:13;97.20;;;43.75;;
25905;SDS011;13713;52.552;13.204;2022-10-13T06:09:39;85.57;;;38.38;;
25905;SDS011;13713;52.552;13.204;2022-10-13T06:12:06;84.95;;;43.70;;
25905;SDS011;13713;52.552;13.204;2022-10-13T06:14:33;99.55;;;44.75;;
25905;SDS011;13713;52.552;13.204;2022-10-13T06:17:01;97.95;;;44.25;;
25905;SDS011;13713;52.552;13.204;2022-10-13T06:19:27;109.43;;;52.30;;
25905;SDS011;13713;52.552;13.204;2022-10-13T06:21:53;104.20;;;49.05;;
25905;SDS011;13713;52.552;13.204;2022-10-13T06:24:19;103.00;;;43.38;;
25905;SDS011;13713;52.552;13.204;2022-10-13T06:26:44;89.63;;;43.05;;
25905;SDS011;13713;52.552;13.204;2022-10-13T06:29:10;98.97;;;47.05;;
25905;SDS011;13713;52.552;13.204;2022-10-13T06:31:35;101.18;;;41.60;;
25905;SDS011;13713;52.552;13.204;2022-10-13T06:34:02;107.03;;;47.85;;
25905;SDS011;13713;52.552;13.204;2022-10-13T06:36:28;109.55;;;47.67;;
25905;SDS011;13713;52.552;13.204;2022-10-13T06:38:53;108.72;;;44.83;;
25905;SDS011;13713;52.552;13.204;2022-10-13T06:41:19;110.47;;;44.60;;
25905;SDS011;13713;52.552;13.204;2022-10-13T06:43:45;115.28;;;47.70;;
25905;SDS011;13713;52.552;13.204;2022-10-13T06:46:11;131.00;;;50.85;;
25905;SDS011;13713;52.552;13.204;2022-10-13T06:48:36;113.93;;;51.55;;
25905;SDS011;13713;52.552;13.204;2022-10-13T06:51:03;118.15;;;55.45;;
25905;SDS011;13713;52.552;13.204;2022-10-13T06:53:31;141.73;;;66.57;;
25905;SDS011;13713;52.552;13.204;2022-10-13T06:55:57;106.22;;;52.38;;
25905;SDS011;13713;52.552;13.204;2022-10-13T06:58:24;115.80;;;51.72;;
25905;SDS011;13713;52.552;13.204;2022-10-13T07:00:50;115.63;;;51.25;;
25905;SDS011;13713;52.552;13.204;2022-10-13T07:03:16;107.82;;;50.15;;
25905;SDS011;13713;52.552;13.204;2022-10-13T07:05:42;108.28;;;48.33;;
25905;SDS011;13713;52.552;13.204;2022-10-13T07:08:07;103.85;;;49.25;;
25905;SDS011;13713;52.552;13.204;2022-10-13T07:10:33;101.25;;;54.03;;
25905;SDS011;13713;52.552;13.204;2022-10-13T07:12:58;105.10;;;51.38;;
25905;SDS011;13713;52.552;13.204;2022-10-13T07:15:25;112.50;;;50.95;;
25905;SDS011;13713;52.552;13.204;2022-10-13T07:17:50;110.38;;;49.38;;
25905;SDS011;13713;52.552;13.204;2022-10-13T07:20:18;100.63;;;46.78;;
25905;SDS011;13713;52.552;13.204;2022-10-13T07:22:45;101.90;;;48.67;;
25905;SDS011;13713;52.552;13.204;2022-10-13T07:25:12;111.97;;;49.55;;
25905;SDS011;13713;52.552;13.204;2022-10-13T07:27:38;119.57;;;59.13;;
25905;SDS011;13713;52.552;13.204;2022-10-13T07:30:05;120.72;;;61.88;;
25905;SDS011;13713;52.552;13.204;2022-10-13T07:32:35;139.68;;;74.57;;
25905;SDS011;13713;52.552;13.204;2022-10-13T07:35:04;148.55;;;77.65;;
25905;SDS011;13713;52.552;13.204;2022-10-13T07:37:30;133.07;;;69.65;;
25905;SDS011;13713;52.552;13.204;2022-10-13T07:39:55;148.57;;;76.30;;
25905;SDS011;13713;52.552;13.204;2022-10-13T07:42:27;155.80;;;76.38;;
25905;SDS011;13713;52.552;13.204;2022-10-13T07:44:53;152.30;;;80.15;;
25905;SDS011;13713;52.552;13.204;2022-10-13T07:47:19;157.85;;;80.53;;
25905;SDS011;13713;52.552;13.204;2022-10-13T07:49:44;156.13;;;79.72;;
25905;SDS011;13713;52.552;13.204;2022-10-13T07:52:10;148.93;;;73.93;;
25905;SDS011;13713;52.552;13.204;2022-10-13T07:54:35;142.93;;;76.50;;
25905;SDS011;13713;52.552;13.204;2022-10-13T07:57:01;148.43;;;71.72;;
25905;SDS011;13713;52.552;13.204;2022-10-13T07:59:27;150.02;;;74.95;;
25905;SDS011;13713;52.552;13.204;2022-10-13T08:01:53;221.23;;;127.22;;
25905;SDS011;13713;52.552;13.204;2022-10-13T08:04:18;159.95;;;85.18;;
25905;SDS011;13713;52.552;13.204;2022-10-13T08:06:44;167.85;;;83.38;;
25905;SDS011;13713;52.552;13.204;2022-10-13T08:09:10;144.13;;;76.93;;
25905;SDS011;13713;52.552;13.204;2022-10-13T08:11:35;154.32;;;77.75;;
25905;SDS011;13713;52.552;13.204;2022-10-13T08:14:02;160.07;;;77.38;;
25905;SDS011;13713;52.552;13.204;2022-10-13T08:16:28;142.93;;;72.53;;
25905;SDS011;13713;52.552;13.204;2022-10-13T08:18:56;148.45;;;71.93;;
25905;SDS011;13713;52.552;13.204;2022-10-13T08:21:22;131.75;;;69.53;;
25905;SDS011;13713;52.552;13.204;2022-10-13T08:23:48;143.80;;;68.78;;
25905;SDS011;13713;52.552;13.204;2022-10-13T08:26:21;133.60;;;65.53;;
25905;SDS011;13713;52.552;13.204;2022-10-13T08:28:49;147.30;;;69.95;;
25905;SDS011;13713;52.552;13.204;2022-10-13T08:31:15;159.48;;;77.57;;
25905;SDS011;13713;52.552;13.204;2022-10-13T08:33:41;198.32;;;100.53;;
25905;SDS011;13713;52.552;13.204;2022-10-13T08:36:08;161.15;;;80.68;;
25905;SDS011;13713;52.552;13.204;2022-10-13T08:38:34;161.00;;;79.28;;
25905;SDS011;13713;52.552;13.204;2022-10-13T08:40:59;172.68;;;81.15;;
25905;SDS011;13713;52.552;13.204;2022-10-13T08:43:25;175.13;;;93.30;;
25905;SDS011;13713;52.552;13.204;2022-10-13T08:45:58;177.20;;;85.38;;
25905;SDS011;13713;52.552;13.204;2022-10-13T08:48:31;167.05;;;80.57;;
25905;SDS011;13713;52.552;13.204;2022-10-13T08:51:01;161.57;;;83.40;;
25905;SDS011;13713;52.552;13.204;2022-10-13T08:53:36;164.93;;;80.93;;
25905;SDS011;13713;52.552;13.204;2022-10-13T08:58:34;173.23;;;88.82;;
25905;SDS011;13713;52.552;13.204;2022-10-13T09:06:31;166.20;;;80.55;;
25905;SDS011;13713;52.552;13.204;2022-10-13T09:09:09;175.43;;;80.25;;
25905;SDS011;13713;52.552;13.204;2022-10-13T09:11:37;172.38;;;79.60;;
25905;SDS011;13713;52.552;13.204;2022-10-13T09:14:08;173.77;;;78.67;;
25905;SDS011;13713;52.552;13.204;2022-10-13T09:16:37;186.57;;;83.60;;
25905;SDS011;13713;52.552;13.204;2022-10-13T09:19:27;197.32;;;81.47;;
25905;SDS011;13713;52.552;13.204;2022-10-13T09:24:23;239.13;;;120.32;;
25905;SDS011;13713;52.552;13.204;2022-10-13T09:27:00;260.38;;;129.73;;
25905;SDS011;13713;52.552;13.204;2022-10-13T09:29:30;207.25;;;104.82;;
25905;SDS011;13713;52.552;13.204;2022-10-13T09:32:06;205.82;;;97.78;;
25905;SDS011;13713;52.552;13.204;2022-10-13T09:34:46;194.35;;;95.15;;
25905;SDS011;13713;52.552;13.204;2022-10-13T09:37:22;208.13;;;95.05;;
25905;SDS011;13713;52.552;13.204;2022-10-13T09:39:59;189.20;;;87.65;;
25905;SDS011;13713;52.552;13.204;2022-10-13T09:42:28;178.00;;;84.53;;
25905;SDS011;13713;52.552;13.204;2022-10-13T09:45:15;173.25;;;82.75;;
25905;SDS011;13713;52.552;13.204;2022-10-13T09:47:58;176.80;;;79.88;;
25905;SDS011;13713;52.552;13.204;2022-10-13T09:50:29;182.82;;;81.13;;
25905;SDS011;13713;52.552;13.204;2022-10-13T10:01:39;174.48;;;76.70;;
25905;SDS011;13713;52.552;13.204;2022-10-13T10:04:13;209.30;;;114.75;;
25905;SDS011;13713;52.552;13.204;2022-10-13T10:06:44;187.50;;;88.72;;
25905;SDS011;13713;52.552;13.204;2022-10-13T10:12:03;255.93;;;137.93;;
25905;SDS011;13713;52.552;13.204;2022-10-13T10:14:31;217.45;;;103.25;;
25905;SDS011;13713;52.552;13.204;2022-10-13T10:21:58;182.57;;;93.80;;
25905;SDS011;13713;52.552;13.204;2022-10-13T10:24:55;206.65;;;101.35;;
25905;SDS011;13713;52.552;13.204;2022-10-13T10:27:38;198.02;;;94.72;;
25905;SDS011;13713;52.552;13.204;2022-10-13T10:30:25;190.90;;;93.22;;
25905;SDS011;13713;52.552;13.204;2022-10-13T10:33:11;203.55;;;95.45;;
25905;SDS011;13713;52.552;13.204;2022-10-13T10:38:43;206.40;;;95.90;;
25905;SDS011;13713;52.552;13.204;2022-10-13T10:41:23;190.50;;;95.45;;
25905;SDS011;13713;52.552;13.204;2022-10-13T10:43:55;191.00;;;89.18;;
25905;SDS011;13713;52.552;13.204;2022-10-13T10:46:27;197.70;;;93.75;;
25905;SDS011;13713;52.552;13.204;2022-10-13T10:51:31;197.45;;;86.07;;
25905;SDS011;13713;52.552;13.204;2022-10-13T10:57:00;206.27;;;100.13;;
25905;SDS011;13713;52.552;13.204;2022-10-13T10:59:36;194.88;;;94.90;;
25905;SDS011;13713;52.552;13.204;2022-10-13T11:05:18;191.00;;;86.03;;
25905;SDS011;13713;52.552;13.204;2022-10-13T11:15:18;186.60;;;82.32;;
25905;SDS011;13713;52.552;13.204;2022-10-13T11:17:51;190.15;;;80.60;;
25905;SDS011;13713;52.552;13.204;2022-10-13T11:25:39;184.55;;;80.82;;
25905;SDS011;13713;52.552;13.204;2022-10-13T11:30:48;191.93;;;86.25;;
25905;SDS011;13713;52.552;13.204;2022-10-13T11:33:51;185.30;;;83.78;;
25905;SDS011;13713;52.552;13.204;2022-10-13T11:36:29;205.90;;;85.95;;
25905;SDS011;13713;52.552;13.204;2022-10-13T11:41:43;199.85;;;87.10;;
25905;SDS011;13713;52.552;13.204;2022-10-13T11:47:16;283.58;;;143.63;;
25905;SDS011;13713;52.552;13.204;2022-10-13T11:53:05;225.95;;;113.43;;
25905;SDS011;13713;52.552;13.204;2022-10-13T11:55:52;234.73;;;121.88;;
25905;SDS011;13713;52.552;13.204;2022-10-13T11:58:23;235.35;;;108.47;;
25905;SDS011;13713;52.552;13.204;2022-10-13T12:01:06;238.32;;;111.40;;
25905;SDS011;13713;52.552;13.204;2022-10-13T12:08:57;216.75;;;102.15;;
25905;SDS011;13713;52.552;13.204;2022-10-13T12:11:29;207.93;;;99.03;;
25905;SDS011;13713;52.552;13.204;2022-10-13T12:13:58;223.65;;;106.80;;
25905;SDS011;13713;52.552;13.204;2022-10-13T12:16:25;218.57;;;106.15;;
25905;SDS011;13713;52.552;13.204;2022-10-13T12:18:52;204.68;;;101.10;;
25905;SDS011;13713;52.552;13.204;2022-10-13T12:21:25;203.98;;;100.07;;
25905;SDS011;13713;52.552;13.204;2022-10-13T12:23:51;254.35;;;117.22;;
25905;SDS011;13713;52.552;13.204;2022-10-13T12:26:31;244.95;;;119.07;;
25905;SDS011;13713;52.552;13.204;2022-10-13T12:28:59;257.50;;;115.55;;
25905;SDS011;13713;52.552;13.204;2022-10-13T12:31:28;238.70;;;121.68;;
25905;SDS011;13713;52.552;13.204;2022-10-13T12:34:02;265.02;;;148.45;;
25905;SDS011;13713;52.552;13.204;2022-10-13T12:38:57;231.13;;;119.80;;
25905;SDS011;13713;52.552;13.204;2022-10-13T12:41:26;228.77;;;115.57;;
25905;SDS011;13713;52.552;13.204;2022-10-13T12:43:54;223.82;;;111.40;;
25905;SDS011;13713;52.552;13.204;2022-10-13T12:49:21;226.85;;;110.88;;
25905;SDS011;13713;52.552;13.204;2022-10-13T12:51:57;223.93;;;107.13;;
25905;SDS011;13713;52.552;13.204;2022-10-13T12:54:28;242.90;;;118.60;;
25905;SDS011;13713;52.552;13.204;2022-10-13T12:56:56;225.98;;;110.35;;
25905;SDS011;13713;52.552;13.204;2022-10-13T12:59:24;224.10;;;114.05;;
25905;SDS011;13713;52.552;13.204;2022-10-13T13:02:03;232.50;;;113.35;;
25905;SDS011;13713;52.552;13.204;2022-10-13T13:04:42;230.80;;;110.07;;
25905;SDS011;13713;52.552;13.204;2022-10-13T13:07:41;213.95;;;103.80;;
25905;SDS011;13713;52.552;13.204;2022-10-13T13:12:33;262.95;;;124.75;;
25905;SDS011;13713;52.552;13.204;2022-10-13T13:17:52;245.35;;;120.15;;
25905;SDS011;13713;52.552;13.204;2022-10-13T13:22:52;243.27;;;124.78;;
25905;SDS011;13713;52.552;13.204;2022-10-13T13:25:18;250.77;;;118.82;;
25905;SDS011;13713;52.552;13.204;2022-10-13T13:27:44;249.68;;;115.47;;
25905;SDS011;13713;52.552;13.204;2022-10-13T13:30:15;244.25;;;109.63;;
25905;SDS011;13713;52.552;13.204;2022-10-13T13:32:43;228.73;;;109.88;;
25905;SDS011;13713;52.552;13.204;2022-10-13T13:35:08;240.45;;;114.00;;
25905;SDS011;13713;52.552;13.204;2022-10-13T13:40:25;265.52;;;120.57;;
25905;SDS011;13713;52.552;13.204;2022-10-13T13:42:52;279.15;;;121.43;;
25905;SDS011;13713;52.552;13.204;2022-10-13T13:45:22;288.17;;;122.20;;
25905;SDS011;13713;52.552;13.204;2022-10-13T13:47:51;281.13;;;122.07;;
25905;SDS011;13713;52.552;13.204;2022-10-13T13:50:22;280.40;;;122.72;;
25905;SDS011;13713;52.552;13.204;2022-10-13T13:52:58;285.85;;;119.18;;
25905;SDS011;13713;52.552;13.204;2022-10-13T13:55:24;301.77;;;123.00;;
25905;SDS011;13713;52.552;13.204;2022-10-13T13:57:51;284.55;;;123.88;;
25905;SDS011;13713;52.552;13.204;2022-10-13T14:00:17;318.98;;;134.25;;
25905;SDS011;13713;52.552;13.204;2022-10-13T14:02:52;299.90;;;127.60;;
25905;SDS011;13713;52.552;13.204;2022-10-13T14:05:18;306.65;;;128.40;;
25905;SDS011;13713;52.552;13.204;2022-10-13T14:07:44;317.55;;;132.68;;
25905;SDS011;13713;52.552;13.204;2022-10-13T14:10:10;331.80;;;140.32;;
25905;SDS011;13713;52.552;13.204;2022-10-13T14:12:36;358.23;;;143.43;;
25905;SDS011;13713;52.552;13.204;2022-10-13T14:15:02;337.33;;;139.73;;
25905;SDS011;13713;52.552;13.204;2022-10-13T14:17:28;366.88;;;145.45;;
25905;SDS011;13713;52.552;13.204;2022-10-13T14:19:54;373.38;;;149.13;;
25905;SDS011;13713;52.552;13.204;2022-10-13T14:22:20;379.23;;;148.35;;
25905;SDS011;13713;52.552;13.204;2022-10-13T14:24:46;392.90;;;153.48;;
25905;SDS011;13713;52.552;13.204;2022-10-13T14:27:12;398.45;;;150.32;;
25905;SDS011;13713;52.552;13.204;2022-10-13T14:29:37;391.45;;;153.50;;
25905;SDS011;13713;52.552;13.204;2022-10-13T14:32:03;405.20;;;157.68;;
25905;SDS011;13713;52.552;13.204;2022-10-13T14:34:29;394.00;;;156.43;;
25905;SDS011;13713;52.552;13.204;2022-10-13T14:36:54;399.13;;;156.70;;
25905;SDS011;13713;52.552;13.204;2022-10-13T14:39:20;403.25;;;154.40;;
25905;SDS011;13713;52.552;13.204;2022-10-13T14:41:46;406.88;;;155.85;;
25905;SDS011;13713;52.552;13.204;2022-10-13T14:44:12;381.92;;;154.45;;
25905;SDS011;13713;52.552;13.204;2022-10-13T14:46:42;411.83;;;156.93;;
25905;SDS011;13713;52.552;13.204;2022-10-13T14:49:08;398.50;;;159.65;;
25905;SDS011;13713;52.552;13.204;2022-10-13T14:51:36;405.52;;;155.93;;
25905;SDS011;13713;52.552;13.204;2022-10-13T14:54:02;402.98;;;161.25;;
25905;SDS011;13713;52.552;13.204;2022-10-13T14:56:28;409.83;;;157.60;;
25905;SDS011;13713;52.552;13.204;2022-10-13T14:59:04;394.75;;;155.73;;
25905;SDS011;13713;52.552;13.204;2022-10-13T15:01:37;391.55;;;150.55;;
25905;SDS011;13713;52.552;13.204;2022-10-13T15:04:05;406.38;;;159.07;;
25905;SDS011;13713;52.552;13.204;2022-10-13T15:06:32;385.35;;;154.10;;
25905;SDS011;13713;52.552;13.204;2022-10-13T15:08:58;386.35;;;150.60;;
25905;SDS011;13713;52.552;13.204;2022-10-13T15:11:24;401.85;;;157.95;;
25905;SDS011;13713;52.552;13.204;2022-10-13T15:13:50;393.55;;;157.68;;
25905;SDS011;13713;52.552;13.204;2022-10-13T15:16:17;378.45;;;152.68;;
25905;SDS011;13713;52.552;13.204;2022-10-13T15:18:47;403.20;;;161.25;;
25905;SDS011;13713;52.552;13.204;2022-10-13T15:21:13;395.70;;;156.15;;
25905;SDS011;13713;52.552;13.204;2022-10-13T15:23:40;393.48;;;155.93;;
25905;SDS011;13713;52.552;13.204;2022-10-13T15:26:06;403.33;;;160.88;;
25905;SDS011;13713;52.552;13.204;2022-10-13T15:28:36;400.33;;;162.32;;
25905;SDS011;13713;52.552;13.204;2022-10-13T15:31:03;431.98;;;165.85;;
25905;SDS011;13713;52.552;13.204;2022-10-13T15:33:30;406.35;;;158.27;;
25905;SDS011;13713;52.552;13.204;2022-10-13T15:35:56;405.10;;;159.00;;
25905;SDS011;13713;52.552;13.204;2022-10-13T15:38:22;416.45;;;160.57;;
25905;SDS011;13713;52.552;13.204;2022-10-13T15:40:48;380.55;;;160.02;;
25905;SDS011;13713;52.552;13.204;2022-10-13T15:43:15;409.77;;;162.18;;
25905;SDS011;13713;52.552;13.204;2022-10-13T15:45:41;396.42;;;156.25;;
25905;SDS011;13713;52.552;13.204;2022-10-13T15:48:08;416.25;;;156.82;;
25905;SDS011;13713;52.552;13.204;2022-10-13T15:50:37;386.23;;;151.77;;
25905;SDS011;13713;52.552;13.204;2022-10-13T15:53:04;407.15;;;160.25;;
25905;SDS011;13713;52.552;13.204;2022-10-13T15:55:30;393.73;;;157.48;;